• Join FlightAware (Why Join?)
  • Login
  • US Flag 
07:51PM EST


 

Airport Tracker/Info


-or-


 

Live Flight TrackerFlight Track Log ✈ UAL4305 ✈ 11-Apr-2013 ✈ KCLL - KIAH

Flight Track Log - Related Links

Times and Time Zones

All times are in EDT time to prevent confusion due to time zone crossing. See the UAL4305 flight status page for this flight to view local times or setup timezone preferences in your user account.

Time Position Orientation Groundspeed Altitude Reporting Facility
EDT Latitude Longitude Course Direction KTS MPH feet Rate Location/Type
08:02AM 30.6028 -96.3647 25° Northeast 144 166 1,200  Level Houston Center
08:03AM 30.6250 -96.3525 25° Northeast 166 191 2,500 2,220 Climbing Houston Center
08:04AM 30.6081 -96.2744 104° East 267 307 4,800 2,160 Climbing Houston Center
08:05AM 30.5847 -96.2125 114° Southeast 273 314 6,500 1,140 Climbing Houston Center
08:06AM 30.5506 -96.1231 114° Southeast 299 344 7,000 240 Climbing Houston Center
08:07AM 30.5147 -96.0314 114° Southeast 298 343 7,000  Level Houston Center
08:08AM 30.4822 -95.9447 113° Southeast 294 338 7,000  Level Houston Center
08:08AM 30.4700 -95.9119 113° Southeast 294 338 7,000  Level Houston Center
08:09AM 30.4494 -95.8586 114° Southeast 291 335 7,000  Level Houston Center
08:09AM 30.4233 -95.8350 142° Southeast 292 336 7,000  Level Houston Center
08:10AM 30.3886 -95.7961 136° Southeast 290 334 7,000  Level Houston Center
08:10AM 30.3631 -95.7694 138° Southeast 292 336 7,000  Level Houston Center
08:11AM 30.3053 -95.7083 138° Southeast 290 334 7,000 -300 Level Houston Center
08:12AM 30.2683 -95.6708 139° Southeast 290 334 6,500 -600 Descending Houston Center
08:13AM 30.2067 -95.6067 138° Southeast 296 341 6,000 -360 Descending Houston Center
08:13AM 30.1825 -95.5803 137° Southeast 297 342 6,100  Climbing Houston Center
08:14AM 30.1317 -95.5275 138° Southeast 302 348 6,000 -120 Descending Houston Center
08:14AM 30.1175 -95.5083 131° Southeast 301 346 6,000  Level Houston Center
08:15AM 30.1053 -95.4414 102° East 295 339 6,000  Level Houston Center
08:15AM 30.1050 -95.4181 91° East 279 321 6,000 -120 Level Houston Center
08:16AM 30.1058 -95.3508 89° East 283 326 5,900 -480 Descending Houston Center
08:17AM 30.1064 -95.2719 90° East 249 287 5,200 -1,140 Descending Houston Center
08:18AM 30.0847 -95.2028 110° East 241 277 3,600 -1,500 Descending Houston Center
08:19AM 30.0478 -95.1453 127° Southeast 233 268 2,200 -840 Descending Houston Center
08:20AM 29.9936 -95.1658 198° South 228 262 1,900 -300 Descending Houston Center
08:21AM 29.9942 -95.2408 271° West 188 216 1,600 -540 Descending Houston Center
08:22AM 29.9939 -95.2864 270° West 195 224 900 -720 Descending Houston Center
08:23AM 29.9883 -95.3264 261° West 165 190 200 -720 Descending Houston Center